createdAt,value
2023-04-13T00:02:43.177Z,97474.34
2023-04-13T00:08:06.010Z,97489.75
2023-04-13T00:13:27.754Z,97500.59
2023-04-13T00:18:50.664Z,97509.38
2023-04-13T00:24:12.610Z,97514.59
2023-04-13T00:29:34.329Z,97509.38
2023-04-13T00:34:56.191Z,97504.38
2023-04-13T00:40:18.595Z,97506.75
2023-04-13T00:45:41.430Z,97499.38
2023-04-13T00:51:03.859Z,97498.22
2023-04-13T00:56:27.272Z,97497.28
2023-04-13T01:01:56.346Z,97498.66
2023-04-13T01:07:27.395Z,97502.88
2023-04-13T01:13:18.789Z,97514.34
2023-04-13T01:18:41.794Z,97509.47
2023-04-13T01:24:32.390Z,97511.88
2023-04-13T01:29:56.993Z,97511.44
2023-04-13T01:35:22.862Z,97513.53
2023-04-13T01:40:44.832Z,97510.94
2023-04-13T01:46:06.760Z,97502.78
2023-04-13T01:51:34.664Z,97499.25
2023-04-13T01:56:57.127Z,97493.38
2023-04-13T02:02:19.023Z,97493.69
2023-04-13T02:07:42.932Z,97501.50
2023-04-13T02:13:04.696Z,97503.97
2023-04-13T02:18:26.936Z,97504.44
2023-04-13T02:23:48.740Z,97503.75
2023-04-13T02:29:10.470Z,97500.19
2023-04-13T02:34:33.967Z,97512.91
2023-04-13T02:39:55.871Z,97511.03
2023-04-13T02:45:18.297Z,97505.22
2023-04-13T02:50:39.996Z,97493.44
2023-04-13T02:56:02.205Z,97497.41
2023-04-13T03:01:25.043Z,97492.16
2023-04-13T03:06:47.082Z,97501.72
2023-04-13T03:12:09.133Z,97509.03
2023-04-13T03:17:31.077Z,97507.78
2023-04-13T03:22:53.712Z,97507.09
2023-04-13T03:28:15.760Z,97513.19
2023-04-13T03:33:37.432Z,97523.16
2023-04-13T03:38:59.480Z,97517.44
2023-04-13T03:44:21.588Z,97531.84
2023-04-13T03:49:43.308Z,97528.13
2023-04-13T03:55:05.464Z,97536.09
2023-04-13T04:00:27.583Z,97556.47
2023-04-13T04:05:49.283Z,97558.81
2023-04-13T04:11:11.006Z,97557.97
2023-04-13T04:16:32.771Z,97561.78
2023-04-13T04:21:57.796Z,97560.78
2023-04-13T04:27:19.961Z,97556.59
2023-04-13T04:32:41.736Z,97554.13
2023-04-13T04:38:04.260Z,97553.63
2023-04-13T04:43:27.262Z,97563.34
2023-04-13T04:48:51.094Z,97566.59
2023-04-13T04:54:12.893Z,97573.78
2023-04-13T04:59:34.616Z,97570.81
2023-04-13T05:04:57.389Z,97559.09
2023-04-13T05:10:19.202Z,97566.91
2023-04-13T05:15:40.933Z,97563.75
2023-04-13T05:21:02.704Z,97567.03
2023-04-13T05:26:25.523Z,97561.84
2023-04-13T05:31:47.391Z,97562.44
2023-04-13T05:37:10.518Z,97571.59
2023-04-13T05:42:32.256Z,97586.41
2023-04-13T05:47:54.043Z,97595.13
2023-04-13T05:53:15.826Z,97593.41
2023-04-13T05:58:39.011Z,97605.91
2023-04-13T06:04:02.381Z,97600.69
2023-04-13T06:09:24.292Z,97614.25
2023-04-13T06:14:45.975Z,97606.84
2023-04-13T06:20:08.845Z,97606.75
2023-04-13T06:25:31.408Z,97615.53
2023-04-13T06:30:53.202Z,97620.31
2023-04-13T06:36:15.078Z,97624.38
2023-04-13T06:41:43.149Z,97628.63
